Time;durP1;ratioP1;P1;durP2;ratioP2;P2;SDS_P1;SDS_P2;PMS_P1;PMS_P2;Temp;Humidity;BMP_temperature;BMP_pressure;BME280_temperature;BME280_humidity;BME280_pressure;Samples;Min_cycle;Max_cycle;Signal;HPM_P1;HPM_P2
2024/02/11 00:00:38;;;;;;;26.95;3.88;;;;;;;;;;5100587;28;20024;-38
2024/02/11 00:03:05;;;;;;;38.33;4.60;;;;;;;;;;5105235;28;20086;-39
2024/02/11 00:05:32;;;;;;;22.75;3.80;;;;;;;;;;5103229;28;20035;-38
2024/02/11 00:07:59;;;;;;;27.13;4.38;;;;;;;;;;5099577;28;20028;-38
2024/02/11 00:10:26;;;;;;;20.88;4.70;;;;;;;;;;5098703;28;20172;-39
2024/02/11 00:12:53;;;;;;;27.13;4.70;;;;;;;;;;5101024;28;20052;-38
2024/02/11 00:15:21;;;;;;;25.08;5.25;;;;;;;;;;5097123;28;20120;-38
2024/02/11 00:17:48;;;;;;;24.00;4.80;;;;;;;;;;5108236;28;20113;-38
2024/02/11 00:20:15;;;;;;;28.10;4.63;;;;;;;;;;5105583;28;20508;-38
2024/02/11 00:22:44;;;;;;;25.42;5.15;;;;;;;;;;5094444;28;20051;-38
2024/02/11 00:25:11;;;;;;;19.75;4.32;;;;;;;;;;5103059;28;20055;-38
2024/02/11 00:27:39;;;;;;;19.88;4.40;;;;;;;;;;5097713;28;20031;-38
2024/02/11 00:30:06;;;;;;;23.00;4.30;;;;;;;;;;5111404;28;20028;-38
2024/02/11 00:32:33;;;;;;;19.17;4.00;;;;;;;;;;5110902;28;20401;-37
2024/02/11 00:35:00;;;;;;;23.75;4.60;;;;;;;;;;5111646;28;20526;-38
2024/02/11 00:37:30;;;;;;;17.65;4.30;;;;;;;;;;5111102;28;20385;-38
2024/02/11 00:39:57;;;;;;;18.63;4.57;;;;;;;;;;5111326;28;20030;-38
2024/02/11 00:42:27;;;;;;;20.98;5.03;;;;;;;;;;5096506;28;20027;-37
2024/02/11 00:44:54;;;;;;;19.15;5.13;;;;;;;;;;5106255;28;20027;-37
2024/02/11 00:47:22;;;;;;;16.55;4.80;;;;;;;;;;5106108;28;20028;-37
2024/02/11 00:49:49;;;;;;;19.38;6.22;;;;;;;;;;5103154;28;20031;-37
2024/02/11 00:52:16;;;;;;;22.67;6.43;;;;;;;;;;5101527;28;20032;-37
2024/02/11 00:54:43;;;;;;;20.05;8.18;;;;;;;;;;5097596;28;20055;-37
2024/02/11 00:57:10;;;;;;;22.98;9.23;;;;;;;;;;5093511;28;20588;-38
2024/02/11 00:59:38;;;;;;;32.42;12.52;;;;;;;;;;5101804;28;20028;-37
2024/02/11 01:02:05;;;;;;;32.72;13.38;;;;;;;;;;5098202;28;20027;-37
2024/02/11 01:04:32;;;;;;;42.42;15.25;;;;;;;;;;5109469;28;20015;-37
2024/02/11 01:06:59;;;;;;;46.15;23.48;;;;;;;;;;5106153;28;20169;-38
2024/02/11 01:09:26;;;;;;;36.90;21.33;;;;;;;;;;5111102;28;20489;-38
2024/02/11 01:11:53;;;;;;;35.35;18.50;;;;;;;;;;5098372;28;20044;-38
2024/02/11 01:14:21;;;;;;;22.45;15.23;;;;;;;;;;5106462;28;20027;-38
2024/02/11 01:16:48;;;;;;;22.60;14.70;;;;;;;;;;5106234;28;20031;-38
2024/02/11 01:19:15;;;;;;;23.08;14.95;;;;;;;;;;5111169;28;20050;-38
2024/02/11 01:21:44;;;;;;;20.20;14.95;;;;;;;;;;5111298;28;20032;-38
2024/02/11 01:24:14;;;;;;;26.05;16.35;;;;;;;;;;5111275;28;20059;-38
2024/02/11 01:26:41;;;;;;;28.75;15.77;;;;;;;;;;5110395;28;20040;-38
2024/02/11 01:29:08;;;;;;;24.42;16.05;;;;;;;;;;5105405;28;20034;-38
2024/02/11 01:31:35;;;;;;;23.88;16.02;;;;;;;;;;5106376;28;20086;-38
2024/02/11 01:34:05;;;;;;;26.83;16.30;;;;;;;;;;5110945;28;20474;-38
2024/02/11 01:36:32;;;;;;;28.23;16.25;;;;;;;;;;5110980;28;20038;-38
2024/02/11 01:38:59;;;;;;;28.60;21.45;;;;;;;;;;5114148;28;20038;-38
2024/02/11 01:41:27;;;;;;;34.10;20.67;;;;;;;;;;5114387;28;20023;-38
2024/02/11 01:43:56;;;;;;;32.90;21.48;;;;;;;;;;5114294;28;20825;-38
2024/02/11 01:46:23;;;;;;;35.58;22.08;;;;;;;;;;5114502;27;20050;-38
2024/02/11 01:48:50;;;;;;;35.90;21.95;;;;;;;;;;5114164;28;20031;-38
2024/02/11 01:51:17;;;;;;;43.83;22.33;;;;;;;;;;5114355;28;20832;-38
2024/02/11 01:53:48;;;;;;;40.55;25.15;;;;;;;;;;5099435;28;20478;-38
2024/02/11 01:56:20;;;;;;;41.22;23.13;;;;;;;;;;5114112;28;20077;-39
2024/02/11 01:58:49;;;;;;;33.05;21.10;;;;;;;;;;5097341;28;20497;-38
2024/02/11 02:01:18;;;;;;;30.05;21.08;;;;;;;;;;5096943;28;20031;-39
2024/02/11 02:03:46;;;;;;;32.70;21.23;;;;;;;;;;5099064;28;20129;-38
2024/02/11 02:06:13;;;;;;;33.35;20.58;;;;;;;;;;5100380;28;20110;-38
2024/02/11 02:08:40;;;;;;;35.05;20.80;;;;;;;;;;5095686;28;20103;-38
2024/02/11 02:11:07;;;;;;;35.88;19.42;;;;;;;;;;5105741;28;20051;-38
2024/02/11 02:13:34;;;;;;;29.40;16.38;;;;;;;;;;5113834;28;20039;-38
2024/02/11 02:16:01;;;;;;;25.23;13.65;;;;;;;;;;5113858;28;20027;-38
2024/02/11 02:18:34;;;;;;;28.67;14.60;;;;;;;;;;5103864;27;20028;-38
2024/02/11 02:21:04;;;;;;;30.80;15.85;;;;;;;;;;5103874;28;20554;-38
2024/02/11 02:23:31;;;;;;;26.52;16.50;;;;;;;;;;5102689;28;20119;-38
2024/02/11 02:25:59;;;;;;;25.90;15.43;;;;;;;;;;5103045;27;20027;-39
2024/02/11 02:28:26;;;;;;;25.92;15.95;;;;;;;;;;5112828;27;20031;-38
2024/02/11 02:30:54;;;;;;;25.35;16.80;;;;;;;;;;5117113;27;20024;-39
2024/02/11 02:33:21;;;;;;;26.77;15.60;;;;;;;;;;5117722;27;20556;-38
2024/02/11 02:35:48;;;;;;;24.65;15.20;;;;;;;;;;5115935;27;20027;-39
2024/02/11 02:38:15;;;;;;;22.40;14.88;;;;;;;;;;5109834;27;20073;-38
2024/02/11 02:40:42;;;;;;;24.25;15.43;;;;;;;;;;5115049;27;20073;-38
2024/02/11 02:43:11;;;;;;;29.27;14.52;;;;;;;;;;5121139;27;20020;-37
2024/02/11 02:45:41;;;;;;;25.60;14.73;;;;;;;;;;5111005;27;20047;-38
2024/02/11 02:48:08;;;;;;;24.88;14.43;;;;;;;;;;5117364;27;20031;-38
2024/02/11 02:50:35;;;;;;;28.73;14.68;;;;;;;;;;5115688;27;20030;-39
2024/02/11 02:53:03;;;;;;;24.92;13.85;;;;;;;;;;5115369;27;20039;-38
2024/02/11 02:55:30;;;;;;;23.88;13.00;;;;;;;;;;5116670;27;20473;-38
2024/02/11 02:57:57;;;;;;;20.60;10.80;;;;;;;;;;5125655;27;20080;-38
2024/02/11 03:00:24;;;;;;;21.33;11.65;;;;;;;;;;5119839;27;20616;-38
2024/02/11 03:02:54;;;;;;;16.10;8.82;;;;;;;;;;5110518;27;20473;-39
2024/02/11 03:05:22;;;;;;;15.70;7.63;;;;;;;;;;5119830;27;20374;-38
2024/02/11 03:07:52;;;;;;;9.80;6.10;;;;;;;;;;5111096;27;20031;-39
2024/02/11 03:10:21;;;;;;;8.90;5.60;;;;;;;;;;5115937;27;20028;-38
2024/02/11 03:12:48;;;;;;;7.38;5.43;;;;;;;;;;5113811;27;20076;-38
2024/02/11 03:15:18;;;;;;;12.82;6.00;;;;;;;;;;5112154;27;20031;-38
2024/02/11 03:17:45;;;;;;;10.13;5.68;;;;;;;;;;5116597;27;20027;-39
2024/02/11 03:20:15;;;;;;;8.85;5.78;;;;;;;;;;5112875;27;20040;-39
2024/02/11 03:22:45;;;;;;;8.20;5.70;;;;;;;;;;5118709;27;20054;-38
2024/02/11 03:25:13;;;;;;;10.23;5.90;;;;;;;;;;5120363;27;20080;-38
2024/02/11 03:27:41;;;;;;;7.70;3.78;;;;;;;;;;5119551;27;20073;-38
2024/02/11 03:30:09;;;;;;;7.53;2.70;;;;;;;;;;5114381;27;20035;-39
2024/02/11 03:32:36;;;;;;;4.72;2.80;;;;;;;;;;5119496;27;20051;-39
2024/02/11 03:35:07;;;;;;;6.88;3.22;;;;;;;;;;5116434;27;20023;-38
2024/02/11 03:37:35;;;;;;;9.30;3.67;;;;;;;;;;5097143;27;20028;-39
2024/02/11 03:40:09;;;;;;;7.63;3.70;;;;;;;;;;5100894;28;20050;-38
2024/02/11 03:42:36;;;;;;;8.05;3.40;;;;;;;;;;5107620;28;20032;-38
2024/02/11 03:45:11;;;;;;;6.53;3.30;;;;;;;;;;5099349;28;20549;-38
2024/02/11 03:47:41;;;;;;;6.68;3.45;;;;;;;;;;5102147;28;20047;-38
2024/02/11 03:50:15;;;;;;;5.50;3.35;;;;;;;;;;5104416;28;20123;-39
2024/02/11 03:52:42;;;;;;;7.75;2.97;;;;;;;;;;5096210;28;20122;-38
2024/02/11 03:55:10;;;;;;;6.07;2.60;;;;;;;;;;5103329;28;20058;-38
2024/02/11 03:57:40;;;;;;;10.13;2.13;;;;;;;;;;5091431;28;20028;-38
2024/02/11 04:00:18;;;;;;;5.43;1.80;;;;;;;;;;5102823;28;20474;-38
2024/02/11 04:02:45;;;;;;;6.35;2.05;;;;;;;;;;5085719;28;20144;-37
2024/02/11 04:05:12;;;;;;;6.15;2.00;;;;;;;;;;5108590;28;20045;-38
2024/02/11 04:07:45;;;;;;;4.00;1.65;;;;;;;;;;5111731;28;20541;-40
2024/02/11 04:10:19;;;;;;;10.13;2.05;;;;;;;;;;5096530;28;20089;-40
2024/02/11 04:12:52;;;;;;;12.70;1.90;;;;;;;;;;5104762;28;20524;-40
2024/02/11 04:15:22;;;;;;;18.77;2.75;;;;;;;;;;5106418;28;20032;-41
2024/02/11 04:18:14;;;;;;;26.50;3.00;;;;;;;;;;5106027;28;20028;-40
2024/02/11 04:20:39;;;;;;;27.02;3.78;;;;;;;;;;5093300;28;20040;-38
2024/02/11 04:23:07;;;;;;;24.23;3.53;;;;;;;;;;5107026;28;20051;-38
2024/02/11 04:25:36;;;;;;;22.75;3.38;;;;;;;;;;5098506;28;20089;-40
2024/02/11 04:28:10;;;;;;;27.80;3.08;;;;;;;;;;5107935;28;20036;-39
2024/02/11 04:30:38;;;;;;;17.77;2.70;;;;;;;;;;5099149;28;20036;-38
2024/02/11 04:33:14;;;;;;;25.45;3.28;;;;;;;;;;5107276;28;20040;-38
2024/02/11 04:35:41;;;;;;;16.13;2.50;;;;;;;;;;5100892;28;20035;-38
2024/02/11 04:38:12;;;;;;;21.70;2.65;;;;;;;;;;5101926;28;20032;-38
2024/02/11 04:40:39;;;;;;;12.52;2.42;;;;;;;;;;5101335;28;20048;-39
2024/02/11 04:43:06;;;;;;;19.08;2.30;;;;;;;;;;5092828;28;20393;-38
2024/02/11 04:45:37;;;;;;;8.77;2.05;;;;;;;;;;5110117;28;20032;-38
2024/02/11 04:48:04;;;;;;;9.43;2.10;;;;;;;;;;5105038;28;20035;-39
2024/02/11 04:50:34;;;;;;;8.18;1.65;;;;;;;;;;5103661;28;20027;-38
2024/02/11 04:53:09;;;;;;;9.13;2.00;;;;;;;;;;5103417;28;20044;-38
2024/02/11 04:55:39;;;;;;;6.00;1.40;;;;;;;;;;5102815;28;20039;-38
2024/02/11 04:58:14;;;;;;;8.38;1.42;;;;;;;;;;5108639;28;20441;-38
2024/02/11 05:00:44;;;;;;;5.13;1.40;;;;;;;;;;5111222;28;20681;-38
2024/02/11 05:03:11;;;;;;;5.90;1.40;;;;;;;;;;5108490;28;20118;-38
2024/02/11 05:05:41;;;;;;;10.65;1.50;;;;;;;;;;5108773;28;20031;-39
2024/02/11 05:08:10;;;;;;;6.55;1.35;;;;;;;;;;5106298;28;20057;-38
2024/02/11 05:10:38;;;;;;;6.93;1.30;;;;;;;;;;5098848;28;20561;-38
2024/02/11 05:13:06;;;;;;;3.58;1.10;;;;;;;;;;5110095;28;20431;-38
2024/02/11 05:15:38;;;;;;;5.57;0.90;;;;;;;;;;5104986;28;20051;-38
2024/02/11 05:18:06;;;;;;;3.72;1.10;;;;;;;;;;5114565;28;20076;-38
2024/02/11 05:20:33;;;;;;;1.60;0.88;;;;;;;;;;5106275;28;20028;-38
2024/02/11 05:23:00;;;;;;;2.75;0.80;;;;;;;;;;5101120;28;20024;-38
2024/02/11 05:25:29;;;;;;;3.58;0.88;;;;;;;;;;5104198;28;20035;-38
2024/02/11 05:28:02;;;;;;;2.33;0.90;;;;;;;;;;5113181;28;20031;-38
2024/02/11 05:30:32;;;;;;;2.47;0.70;;;;;;;;;;5114921;28;20035;-38
2024/02/11 05:33:00;;;;;;;2.38;0.80;;;;;;;;;;5101213;28;20046;-38
2024/02/11 05:35:28;;;;;;;1.90;0.90;;;;;;;;;;5114376;28;20027;-39
2024/02/11 05:37:59;;;;;;;3.58;0.90;;;;;;;;;;5114745;28;20762;-39
2024/02/11 05:40:27;;;;;;;1.98;0.88;;;;;;;;;;5106108;28;20024;-38
2024/02/11 05:42:55;;;;;;;1.48;0.88;;;;;;;;;;5100101;28;20478;-39
2024/02/11 05:45:26;;;;;;;2.20;0.98;;;;;;;;;;5102504;28;20035;-38
2024/02/11 05:47:54;;;;;;;1.63;0.70;;;;;;;;;;5114171;28;20041;-38
2024/02/11 05:50:22;;;;;;;1.65;0.80;;;;;;;;;;5114554;28;20027;-39
2024/02/11 05:52:49;;;;;;;4.00;0.90;;;;;;;;;;5109440;28;20039;-38
2024/02/11 05:55:16;;;;;;;1.67;0.90;;;;;;;;;;5114384;28;20102;-38
2024/02/11 05:57:47;;;;;;;1.67;0.70;;;;;;;;;;5103017;28;20039;-38
2024/02/11 06:00:16;;;;;;;1.70;0.90;;;;;;;;;;5114557;28;20110;-38
2024/02/11 06:02:43;;;;;;;2.30;0.80;;;;;;;;;;5102445;28;20039;-38
2024/02/11 06:05:13;;;;;;;2.80;0.90;;;;;;;;;;5106221;28;20039;-38
2024/02/11 06:07:40;;;;;;;2.88;0.80;;;;;;;;;;5114500;27;20024;-38
2024/02/11 06:10:11;;;;;;;3.20;1.08;;;;;;;;;;5102404;28;20032;-38
2024/02/11 06:12:39;;;;;;;4.70;0.80;;;;;;;;;;5106644;28;20096;-38
2024/02/11 06:15:10;;;;;;;4.03;0.88;;;;;;;;;;5113694;27;20063;-38
2024/02/11 06:17:41;;;;;;;2.70;0.95;;;;;;;;;;5114145;28;20034;-38
2024/02/11 06:20:14;;;;;;;1.05;0.70;;;;;;;;;;5114068;28;20045;-38
2024/02/11 06:22:42;;;;;;;4.60;0.90;;;;;;;;;;5113089;28;20096;-37
2024/02/11 06:25:09;;;;;;;2.50;0.80;;;;;;;;;;5110245;28;20024;-38
2024/02/11 06:27:38;;;;;;;7.10;0.98;;;;;;;;;;5106962;28;20032;-38
2024/02/11 06:30:12;;;;;;;4.53;1.00;;;;;;;;;;5104716;28;20034;-38
2024/02/11 06:32:42;;;;;;;6.50;1.10;;;;;;;;;;5098646;28;20042;-38
2024/02/11 06:35:09;;;;;;;4.75;0.90;;;;;;;;;;5096328;28;20020;-38
2024/02/11 06:37:40;;;;;;;5.13;1.00;;;;;;;;;;5109649;28;20085;-38
2024/02/11 06:40:11;;;;;;;13.88;1.40;;;;;;;;;;5098787;28;20062;-38
2024/02/11 06:42:39;;;;;;;10.07;1.23;;;;;;;;;;5102425;28;20024;-38
2024/02/11 06:45:08;;;;;;;8.73;1.25;;;;;;;;;;5095947;28;20436;-38
2024/02/11 06:47:36;;;;;;;7.93;1.25;;;;;;;;;;5109416;28;20052;-38
2024/02/11 06:50:08;;;;;;;8.35;1.10;;;;;;;;;;5103561;28;20566;-38
2024/02/11 06:52:35;;;;;;;4.47;1.10;;;;;;;;;;5102901;28;20036;-38
2024/02/11 06:55:02;;;;;;;8.65;1.20;;;;;;;;;;5101743;28;20027;-38
2024/02/11 06:57:32;;;;;;;6.35;0.90;;;;;;;;;;5107418;28;20119;-38
2024/02/11 06:59:59;;;;;;;6.80;1.05;;;;;;;;;;5103109;28;20399;-38
2024/02/11 07:02:26;;;;;;;6.20;1.10;;;;;;;;;;5103037;27;20123;-38
2024/02/11 07:04:55;;;;;;;9.55;1.20;;;;;;;;;;5106392;28;20027;-38
2024/02/11 07:07:23;;;;;;;9.38;1.30;;;;;;;;;;5109307;28;20036;-39
2024/02/11 07:09:51;;;;;;;10.82;1.20;;;;;;;;;;5097239;28;20044;-39
2024/02/11 07:12:19;;;;;;;10.15;1.25;;;;;;;;;;5107913;28;20043;-38
2024/02/11 07:14:46;;;;;;;8.75;1.33;;;;;;;;;;5109550;28;20073;-38
2024/02/11 07:17:17;;;;;;;8.60;1.20;;;;;;;;;;5102957;28;20031;-38
2024/02/11 07:19:44;;;;;;;6.97;1.17;;;;;;;;;;5112556;28;20032;-38
2024/02/11 07:22:13;;;;;;;8.70;1.50;;;;;;;;;;5099298;28;20024;-38
2024/02/11 07:24:41;;;;;;;8.38;1.42;;;;;;;;;;5112397;28;20035;-39
2024/02/11 07:27:14;;;;;;;7.80;1.45;;;;;;;;;;5112586;28;20039;-38
2024/02/11 07:29:42;;;;;;;9.32;1.60;;;;;;;;;;5112197;28;20028;-38
2024/02/11 07:32:13;;;;;;;14.90;1.73;;;;;;;;;;5107299;28;20032;-38
2024/02/11 07:34:40;;;;;;;10.75;1.48;;;;;;;;;;5092609;28;20541;-39
2024/02/11 07:37:09;;;;;;;14.82;1.58;;;;;;;;;;5097801;28;20067;-38
2024/02/11 07:39:38;;;;;;;11.20;1.60;;;;;;;;;;5102707;28;20054;-38
2024/02/11 07:42:06;;;;;;;5.60;1.10;;;;;;;;;;5094168;28;20413;-38
2024/02/11 07:44:33;;;;;;;9.77;1.35;;;;;;;;;;5095922;28;20032;-38
2024/02/11 07:47:05;;;;;;;6.82;1.33;;;;;;;;;;5103064;28;20027;-38
2024/02/11 07:49:37;;;;;;;3.25;1.05;;;;;;;;;;5103871;28;20032;-38
2024/02/11 07:52:06;;;;;;;3.95;1.00;;;;;;;;;;5094168;28;20051;-39
2024/02/11 07:54:33;;;;;;;4.60;1.00;;;;;;;;;;5094051;28;20043;-38
2024/02/11 07:57:01;;;;;;;3.53;1.30;;;;;;;;;;5105087;28;20390;-39
2024/02/11 07:59:28;;;;;;;6.38;1.00;;;;;;;;;;5104780;28;20031;-38
2024/02/11 08:01:55;;;;;;;3.92;0.85;;;;;;;;;;5096742;28;20031;-39
2024/02/11 08:04:23;;;;;;;3.00;0.90;;;;;;;;;;5107085;28;20036;-38
2024/02/11 08:06:51;;;;;;;1.52;0.75;;;;;;;;;;5111997;28;20790;-38
2024/02/11 08:09:19;;;;;;;2.67;1.00;;;;;;;;;;5106803;28;20042;-38
2024/02/11 08:11:48;;;;;;;4.40;0.90;;;;;;;;;;5096536;28;20048;-38
2024/02/11 08:14:17;;;;;;;3.72;0.90;;;;;;;;;;5111571;28;20082;-38
2024/02/11 08:16:49;;;;;;;3.38;1.20;;;;;;;;;;5098207;28;20124;-38
2024/02/11 08:19:17;;;;;;;3.28;0.80;;;;;;;;;;5111496;28;20027;-39
2024/02/11 08:21:46;;;;;;;5.63;1.10;;;;;;;;;;5111511;28;20556;-38
2024/02/11 08:24:14;;;;;;;2.53;1.10;;;;;;;;;;5110002;28;20035;-38
2024/02/11 08:26:43;;;;;;;5.15;1.13;;;;;;;;;;5111749;28;20038;-38
2024/02/11 08:29:12;;;;;;;5.88;1.15;;;;;;;;;;5111325;28;20417;-38
2024/02/11 08:31:40;;;;;;;1.95;1.00;;;;;;;;;;5111636;28;20039;-38
2024/02/11 08:34:11;;;;;;;7.13;1.10;;;;;;;;;;5111142;28;20042;-38
2024/02/11 08:36:38;;;;;;;1.95;0.90;;;;;;;;;;5111352;28;20068;-38
2024/02/11 08:39:06;;;;;;;2.95;1.00;;;;;;;;;;5106838;28;20058;-38
2024/02/11 08:41:34;;;;;;;4.20;1.00;;;;;;;;;;5102002;28;20398;-38
2024/02/11 08:44:03;;;;;;;2.65;1.33;;;;;;;;;;5111263;28;20437;-38
2024/02/11 08:46:31;;;;;;;3.83;1.35;;;;;;;;;;5112683;28;20114;-38
2024/02/11 08:49:02;;;;;;;6.25;1.02;;;;;;;;;;5115515;28;20027;-38
2024/02/11 08:51:31;;;;;;;4.05;1.13;;;;;;;;;;5115661;28;20031;-38
2024/02/11 08:53:58;;;;;;;2.75;0.82;;;;;;;;;;5115126;28;20085;-38
2024/02/11 08:56:27;;;;;;;4.05;0.90;;;;;;;;;;5115373;28;20036;-38
2024/02/11 08:58:54;;;;;;;3.53;1.00;;;;;;;;;;5115343;28;20481;-38
2024/02/11 09:01:21;;;;;;;4.07;1.00;;;;;;;;;;5115321;28;20074;-38
2024/02/11 09:03:48;;;;;;;5.10;1.15;;;;;;;;;;5101742;28;20069;-38
2024/02/11 09:06:15;;;;;;;1.60;1.10;;;;;;;;;;5115143;28;20037;-40
2024/02/11 09:08:42;;;;;;;2.92;1.20;;;;;;;;;;5115161;28;20027;-38
2024/02/11 09:11:13;;;;;;;1.85;0.88;;;;;;;;;;5110354;28;20043;-38
2024/02/11 09:13:40;;;;;;;1.35;0.82;;;;;;;;;;5109469;28;20100;-38
2024/02/11 09:16:09;;;;;;;5.70;1.08;;;;;;;;;;5114790;27;20024;-38
2024/02/11 09:18:36;;;;;;;2.13;0.90;;;;;;;;;;5115091;28;20035;-38
2024/02/11 09:21:03;;;;;;;2.95;1.10;;;;;;;;;;5115013;28;20244;-38
2024/02/11 09:23:30;;;;;;;3.05;1.10;;;;;;;;;;5115167;28;20047;-38
2024/02/11 09:25:58;;;;;;;3.42;1.20;;;;;;;;;;5115121;28;20031;-38
2024/02/11 09:28:25;;;;;;;3.90;1.20;;;;;;;;;;5114737;28;20058;-38
2024/02/11 09:30:52;;;;;;;3.38;1.10;;;;;;;;;;5114870;28;20157;-38
2024/02/11 09:33:20;;;;;;;4.80;0.95;;;;;;;;;;5114682;28;20131;-38
2024/02/11 09:35:48;;;;;;;4.95;1.10;;;;;;;;;;5114304;28;20381;-38
2024/02/11 09:38:17;;;;;;;4.45;1.15;;;;;;;;;;5114529;28;20036;-39
2024/02/11 09:40:44;;;;;;;5.25;1.05;;;;;;;;;;5110587;28;20039;-38
2024/02/11 09:43:12;;;;;;;3.15;1.05;;;;;;;;;;5095793;28;20077;-38
2024/02/11 09:45:40;;;;;;;3.17;1.00;;;;;;;;;;5112042;28;20562;-38
2024/02/11 09:48:08;;;;;;;2.47;1.00;;;;;;;;;;5114639;27;20046;-38
2024/02/11 09:50:36;;;;;;;5.43;0.90;;;;;;;;;;5114493;28;20110;-38
2024/02/11 09:53:03;;;;;;;4.75;0.73;;;;;;;;;;5114505;28;20035;-38
2024/02/11 09:55:32;;;;;;;4.93;1.10;;;;;;;;;;5114323;28;20043;-38
2024/02/11 09:57:58;;;;;;;3.85;1.08;;;;;;;;;;5113367;28;20489;-38
2024/02/11 10:00:26;;;;;;;3.35;0.85;;;;;;;;;;5114376;28;20031;-38
2024/02/11 10:02:55;;;;;;;5.00;1.42;;;;;;;;;;5114190;28;20024;-38
2024/02/11 10:05:24;;;;;;;2.35;1.30;;;;;;;;;;5098438;28;20088;-38
2024/02/11 10:07:54;;;;;;;5.60;1.00;;;;;;;;;;5102920;28;20385;-38
2024/02/11 10:10:21;;;;;;;4.95;1.00;;;;;;;;;;5111826;28;20101;-38
2024/02/11 10:12:51;;;;;;;2.00;0.85;;;;;;;;;;5102200;28;20062;-37
2024/02/11 10:15:20;;;;;;;1.85;1.08;;;;;;;;;;5110932;28;20520;-38
2024/02/11 10:17:47;;;;;;;3.55;1.08;;;;;;;;;;5114063;28;20443;-37
2024/02/11 10:20:15;;;;;;;1.88;1.08;;;;;;;;;;5113708;28;20085;-38
2024/02/11 10:22:43;;;;;;;4.25;1.25;;;;;;;;;;5114073;28;20058;-37
2024/02/11 10:25:11;;;;;;;2.28;0.93;;;;;;;;;;5100461;27;20034;-38
2024/02/11 10:27:38;;;;;;;1.73;0.90;;;;;;;;;;5113720;28;20524;-39
2024/02/11 10:30:11;;;;;;;3.45;1.00;;;;;;;;;;5113681;28;20032;-37
2024/02/11 10:32:38;;;;;;;2.78;0.85;;;;;;;;;;5113471;28;20032;-37
2024/02/11 10:35:06;;;;;;;3.83;1.10;;;;;;;;;;5113899;28;20034;-38
2024/02/11 10:40:45;;;;;;;1.23;0.70;;;;;;;;;;5111695;28;20031;-38
2024/02/11 10:46:23;;;;;;;2.85;0.90;;;;;;;;;;5115324;28;20031;-37
2024/02/11 10:52:13;;;;;;;6.20;1.20;;;;;;;;;;5095181;28;20039;-37
2024/02/11 10:57:54;;;;;;;5.93;1.00;;;;;;;;;;5099189;28;20129;-38
2024/02/11 11:03:36;;;;;;;1.55;0.80;;;;;;;;;;5115029;28;20382;-38
2024/02/11 11:09:14;;;;;;;1.45;1.00;;;;;;;;;;5105641;28;20038;-38
2024/02/11 11:14:56;;;;;;;2.83;1.30;;;;;;;;;;5114388;28;20127;-38
2024/02/11 11:20:33;;;;;;;3.67;1.30;;;;;;;;;;5105205;28;20097;-38
2024/02/11 11:26:12;;;;;;;3.17;0.90;;;;;;;;;;5114444;28;20181;-37
2024/02/11 11:31:49;;;;;;;1.98;0.90;;;;;;;;;;5103300;28;20401;-38
2024/02/11 11:34:16;;;;;;;1.45;0.90;;;;;;;;;;5111109;28;20035;-38
2024/02/11 11:36:43;;;;;;;0.80;0.80;;;;;;;;;;5112486;27;20496;-37
2024/02/11 11:39:19;;;;;;;2.30;1.38;;;;;;;;;;5112072;28;20111;-38
2024/02/11 11:41:49;;;;;;;1.77;1.10;;;;;;;;;;5112345;28;20066;-38
2024/02/11 11:44:22;;;;;;;2.05;1.40;;;;;;;;;;5112359;28;20098;-38
2024/02/11 11:46:51;;;;;;;1.65;1.27;;;;;;;;;;5112145;28;20054;-38
2024/02/11 11:49:18;;;;;;;2.15;1.65;;;;;;;;;;5112523;28;20024;-37
2024/02/11 11:51:45;;;;;;;1.65;1.50;;;;;;;;;;5112077;28;20062;-38
2024/02/11 11:54:12;;;;;;;3.60;1.40;;;;;;;;;;5112279;28;20039;-37
2024/02/11 11:56:40;;;;;;;1.38;0.95;;;;;;;;;;5112169;28;20039;-37
2024/02/11 11:59:07;;;;;;;2.72;1.10;;;;;;;;;;5111713;28;20062;-38
2024/02/11 12:01:34;;;;;;;3.88;1.08;;;;;;;;;;5111718;28;20032;-38
2024/02/11 12:04:01;;;;;;;0.93;0.85;;;;;;;;;;5112208;28;20088;-38
2024/02/11 12:06:28;;;;;;;2.95;0.93;;;;;;;;;;5112090;28;20091;-38
2024/02/11 12:08:54;;;;;;;4.50;1.08;;;;;;;;;;5112170;28;20031;-37
2024/02/11 12:11:21;;;;;;;2.65;1.20;;;;;;;;;;5111330;28;20058;-38
2024/02/11 12:13:50;;;;;;;2.20;1.00;;;;;;;;;;5111800;28;20042;-37
2024/02/11 12:16:20;;;;;;;2.95;1.10;;;;;;;;;;5111878;28;20032;-38
2024/02/11 12:18:47;;;;;;;2.53;1.55;;;;;;;;;;5111912;28;20544;-38
2024/02/11 12:21:15;;;;;;;5.70;1.48;;;;;;;;;;5110892;28;20036;-38
2024/02/11 12:23:42;;;;;;;2.20;1.17;;;;;;;;;;5111733;28;20035;-38
2024/02/11 12:26:09;;;;;;;1.25;1.02;;;;;;;;;;5098196;28;20102;-38
2024/02/11 12:28:37;;;;;;;1.52;1.20;;;;;;;;;;5111728;28;20122;-38
2024/02/11 12:31:08;;;;;;;3.22;1.23;;;;;;;;;;5111224;28;20036;-38
2024/02/11 12:33:37;;;;;;;2.97;1.00;;;;;;;;;;5111510;28;20118;-38
2024/02/11 12:36:07;;;;;;;1.67;1.27;;;;;;;;;;5111437;28;20031;-38
2024/02/11 12:38:35;;;;;;;3.08;1.33;;;;;;;;;;5111609;28;20119;-38
2024/02/11 12:41:02;;;;;;;2.63;1.40;;;;;;;;;;5111497;28;20038;-37
2024/02/11 12:43:29;;;;;;;3.53;1.35;;;;;;;;;;5111681;28;20053;-38
2024/02/11 12:45:56;;;;;;;1.67;1.00;;;;;;;;;;5111655;28;20028;-38
2024/02/11 12:48:23;;;;;;;1.25;1.15;;;;;;;;;;5111768;28;20059;-38
2024/02/11 12:50:50;;;;;;;2.28;1.50;;;;;;;;;;5111477;28;20076;-38
2024/02/11 12:53:17;;;;;;;5.03;1.60;;;;;;;;;;5111567;28;20554;-37
2024/02/11 12:55:44;;;;;;;1.98;1.00;;;;;;;;;;5111600;28;20401;-38
2024/02/11 12:58:11;;;;;;;2.45;1.20;;;;;;;;;;5111462;28;20032;-37
2024/02/11 13:00:38;;;;;;;2.35;1.33;;;;;;;;;;5111642;28;20031;-38
2024/02/11 13:03:07;;;;;;;2.60;1.20;;;;;;;;;;5110768;28;20028;-38
2024/02/11 13:05:34;;;;;;;7.38;1.25;;;;;;;;;;5111579;28;20762;-37
2024/02/11 13:08:00;;;;;;;5.40;1.48;;;;;;;;;;5111497;28;20028;-38
2024/02/11 13:10:27;;;;;;;2.47;1.30;;;;;;;;;;5109814;28;20393;-37
2024/02/11 13:12:54;;;;;;;2.30;1.40;;;;;;;;;;5110813;28;20035;-37
2024/02/11 13:15:21;;;;;;;6.68;1.30;;;;;;;;;;5111486;28;20036;-37
2024/02/11 13:17:48;;;;;;;1.35;1.10;;;;;;;;;;5111249;28;20032;-38
2024/02/11 13:20:15;;;;;;;3.13;1.42;;;;;;;;;;5111445;28;20080;-38
2024/02/11 13:22:47;;;;;;;2.53;1.55;;;;;;;;;;5111104;28;20034;-38
2024/02/11 13:25:15;;;;;;;4.57;1.50;;;;;;;;;;5110630;28;20035;-38
2024/02/11 13:27:42;;;;;;;6.75;1.13;;;;;;;;;;5107317;28;20269;-38
2024/02/11 13:30:09;;;;;;;3.83;1.40;;;;;;;;;;5111079;28;20066;-38
2024/02/11 13:32:36;;;;;;;2.05;1.30;;;;;;;;;;5112331;28;20032;-37
2024/02/11 13:35:03;;;;;;;2.13;1.40;;;;;;;;;;5115054;28;20106;-38
2024/02/11 13:37:30;;;;;;;3.47;1.52;;;;;;;;;;5114835;27;20494;-38
2024/02/11 13:39:58;;;;;;;2.08;1.33;;;;;;;;;;5113710;28;20032;-37
2024/02/11 13:42:25;;;;;;;3.20;1.30;;;;;;;;;;5095581;28;20480;-38
2024/02/11 13:44:54;;;;;;;2.13;1.30;;;;;;;;;;5096217;28;20115;-38
2024/02/11 13:47:21;;;;;;;1.80;1.20;;;;;;;;;;5096109;28;20042;-38
2024/02/11 13:49:48;;;;;;;4.18;1.25;;;;;;;;;;5110481;28;20032;-38
2024/02/11 13:52:15;;;;;;;4.10;1.20;;;;;;;;;;5114765;28;20204;-38
2024/02/11 13:54:42;;;;;;;1.38;1.10;;;;;;;;;;5114855;28;20024;-38
2024/02/11 13:57:09;;;;;;;1.35;1.10;;;;;;;;;;5108317;28;20032;-38
2024/02/11 13:59:39;;;;;;;2.50;1.30;;;;;;;;;;5102821;28;20085;-39
2024/02/11 14:02:05;;;;;;;3.05;1.40;;;;;;;;;;5104226;28;20043;-38
2024/02/11 14:04:32;;;;;;;1.48;1.35;;;;;;;;;;5104460;28;20110;-38
2024/02/11 14:07:01;;;;;;;1.55;1.23;;;;;;;;;;5102567;28;20090;-38
2024/02/11 14:09:28;;;;;;;3.55;1.17;;;;;;;;;;5104108;28;20043;-38
2024/02/11 14:11:55;;;;;;;1.55;1.30;;;;;;;;;;5104297;28;20051;-38
2024/02/11 14:14:23;;;;;;;2.47;1.30;;;;;;;;;;5102731;28;20043;-38
2024/02/11 14:16:51;;;;;;;1.95;1.30;;;;;;;;;;5108301;28;20032;-38
2024/02/11 14:19:18;;;;;;;2.72;1.20;;;;;;;;;;5114419;28;20435;-38
2024/02/11 14:21:49;;;;;;;3.35;1.40;;;;;;;;;;5114225;28;20027;-38
2024/02/11 14:24:20;;;;;;;2.08;1.35;;;;;;;;;;5113756;28;20036;-38
2024/02/11 14:26:51;;;;;;;4.32;1.27;;;;;;;;;;5103593;28;20424;-38
2024/02/11 14:29:18;;;;;;;2.90;1.48;;;;;;;;;;5104349;28;20504;-38
2024/02/11 14:31:45;;;;;;;3.78;1.55;;;;;;;;;;5101414;28;20032;-38
2024/02/11 14:34:13;;;;;;;7.43;1.40;;;;;;;;;;5101105;28;20046;-38
2024/02/11 14:36:40;;;;;;;6.00;1.70;;;;;;;;;;5102271;28;20071;-38
2024/02/11 14:39:07;;;;;;;3.67;1.45;;;;;;;;;;5096517;28;20024;-37
2024/02/11 14:41:37;;;;;;;4.15;1.48;;;;;;;;;;5093531;28;20020;-38
2024/02/11 14:44:14;;;;;;;4.50;1.45;;;;;;;;;;5111859;28;20047;-38
2024/02/11 14:46:41;;;;;;;2.83;1.40;;;;;;;;;;5093518;28;20028;-38
2024/02/11 14:49:11;;;;;;;8.43;1.65;;;;;;;;;;5093221;28;20028;-38
2024/02/11 14:51:42;;;;;;;6.57;1.50;;;;;;;;;;5093237;28;20095;-38
2024/02/11 14:54:11;;;;;;;4.53;1.50;;;;;;;;;;5091680;28;20516;-38
2024/02/11 14:56:38;;;;;;;4.38;1.50;;;;;;;;;;5093454;28;20453;-37
2024/02/11 14:59:06;;;;;;;2.35;1.35;;;;;;;;;;5093299;28;20024;-37
2024/02/11 15:01:33;;;;;;;5.47;1.27;;;;;;;;;;5092826;28;20505;-38
2024/02/11 15:04:00;;;;;;;8.50;1.50;;;;;;;;;;5098319;28;20032;-38
2024/02/11 15:06:27;;;;;;;7.47;1.70;;;;;;;;;;5102871;28;20034;-38
2024/02/11 15:08:54;;;;;;;6.40;1.38;;;;;;;;;;5101728;28;20089;-38
2024/02/11 15:11:21;;;;;;;8.48;1.73;;;;;;;;;;5096705;28;20052;-38
2024/02/11 15:13:49;;;;;;;8.95;1.55;;;;;;;;;;5095010;28;20386;-37
2024/02/11 15:16:16;;;;;;;4.65;1.65;;;;;;;;;;5104788;28;20075;-38